sensor_id;sensor_type;location;lat;lon;timestamp;P1;durP1;ratioP1;P2;durP2;ratioP2
71490;SDS011;59307;50.060;9.150;2022-07-06T00:00:49;3.90;;;2.83;;
71490;SDS011;59307;50.060;9.150;2022-07-06T00:03:14;5.53;;;2.70;;
71490;SDS011;59307;50.060;9.150;2022-07-06T00:05:39;6.33;;;2.93;;
71490;SDS011;59307;50.060;9.150;2022-07-06T00:08:05;5.77;;;3.00;;
71490;SDS011;59307;50.060;9.150;2022-07-06T00:10:30;4.43;;;2.67;;
71490;SDS011;59307;50.060;9.150;2022-07-06T00:12:55;4.68;;;2.70;;
71490;SDS011;59307;50.060;9.150;2022-07-06T00:15:21;4.83;;;3.10;;
71490;SDS011;59307;50.060;9.150;2022-07-06T00:17:46;6.93;;;2.90;;
71490;SDS011;59307;50.060;9.150;2022-07-06T00:20:11;6.27;;;2.60;;
71490;SDS011;59307;50.060;9.150;2022-07-06T00:22:37;4.93;;;2.80;;
71490;SDS011;59307;50.060;9.150;2022-07-06T00:25:02;6.93;;;2.97;;
71490;SDS011;59307;50.060;9.150;2022-07-06T00:27:28;3.40;;;2.60;;
71490;SDS011;59307;50.060;9.150;2022-07-06T00:29:53;5.77;;;2.80;;
71490;SDS011;59307;50.060;9.150;2022-07-06T00:32:18;5.57;;;2.70;;
71490;SDS011;59307;50.060;9.150;2022-07-06T00:34:43;4.53;;;2.80;;
71490;SDS011;59307;50.060;9.150;2022-07-06T00:37:09;6.17;;;2.80;;
71490;SDS011;59307;50.060;9.150;2022-07-06T00:39:34;4.20;;;2.83;;
71490;SDS011;59307;50.060;9.150;2022-07-06T00:41:59;4.60;;;2.70;;
71490;SDS011;59307;50.060;9.150;2022-07-06T00:44:25;4.60;;;2.87;;
71490;SDS011;59307;50.060;9.150;2022-07-06T00:46:51;5.00;;;2.90;;
71490;SDS011;59307;50.060;9.150;2022-07-06T00:49:16;5.30;;;2.70;;
71490;SDS011;59307;50.060;9.150;2022-07-06T00:52:00;4.70;;;2.77;;
71490;SDS011;59307;50.060;9.150;2022-07-06T00:54:26;5.97;;;2.88;;
71490;SDS011;59307;50.060;9.150;2022-07-06T00:56:55;5.65;;;2.83;;
71490;SDS011;59307;50.060;9.150;2022-07-06T00:59:20;5.87;;;3.20;;
71490;SDS011;59307;50.060;9.150;2022-07-06T01:01:46;7.03;;;2.90;;
71490;SDS011;59307;50.060;9.150;2022-07-06T01:04:11;5.47;;;3.10;;
71490;SDS011;59307;50.060;9.150;2022-07-06T01:06:36;5.70;;;2.93;;
71490;SDS011;59307;50.060;9.150;2022-07-06T01:09:03;6.03;;;2.97;;
71490;SDS011;59307;50.060;9.150;2022-07-06T01:11:30;8.32;;;3.00;;
71490;SDS011;59307;50.060;9.150;2022-07-06T01:13:55;3.78;;;2.92;;
71490;SDS011;59307;50.060;9.150;2022-07-06T01:16:21;5.93;;;2.90;;
71490;SDS011;59307;50.060;9.150;2022-07-06T01:18:46;4.10;;;2.87;;
71490;SDS011;59307;50.060;9.150;2022-07-06T01:21:12;4.43;;;3.00;;
71490;SDS011;59307;50.060;9.150;2022-07-06T01:23:42;4.67;;;3.10;;
71490;SDS011;59307;50.060;9.150;2022-07-06T01:26:10;6.53;;;3.00;;
71490;SDS011;59307;50.060;9.150;2022-07-06T01:28:37;4.45;;;2.60;;
71490;SDS011;59307;50.060;9.150;2022-07-06T01:31:02;5.30;;;2.83;;
71490;SDS011;59307;50.060;9.150;2022-07-06T01:33:28;3.80;;;2.83;;
71490;SDS011;59307;50.060;9.150;2022-07-06T01:35:53;3.27;;;2.63;;
71490;SDS011;59307;50.060;9.150;2022-07-06T01:38:18;4.43;;;2.60;;
71490;SDS011;59307;50.060;9.150;2022-07-06T01:40:44;5.07;;;2.67;;
71490;SDS011;59307;50.060;9.150;2022-07-06T01:43:09;4.40;;;2.47;;
71490;SDS011;59307;50.060;9.150;2022-07-06T01:45:34;5.20;;;2.70;;
71490;SDS011;59307;50.060;9.150;2022-07-06T01:47:59;6.27;;;3.00;;
71490;SDS011;59307;50.060;9.150;2022-07-06T01:50:25;5.07;;;2.60;;
71490;SDS011;59307;50.060;9.150;2022-07-06T01:52:50;6.25;;;2.92;;
71490;SDS011;59307;50.060;9.150;2022-07-06T01:55:15;7.07;;;2.60;;
71490;SDS011;59307;50.060;9.150;2022-07-06T01:57:41;6.40;;;2.40;;
71490;SDS011;59307;50.060;9.150;2022-07-06T02:00:07;4.67;;;2.50;;
71490;SDS011;59307;50.060;9.150;2022-07-06T02:02:33;5.93;;;2.65;;
71490;SDS011;59307;50.060;9.150;2022-07-06T02:04:58;6.67;;;2.40;;
71490;SDS011;59307;50.060;9.150;2022-07-06T02:07:23;6.27;;;2.50;;
71490;SDS011;59307;50.060;9.150;2022-07-06T02:09:49;6.20;;;2.50;;
71490;SDS011;59307;50.060;9.150;2022-07-06T02:12:14;4.30;;;2.50;;
71490;SDS011;59307;50.060;9.150;2022-07-06T02:14:39;5.13;;;2.43;;
71490;SDS011;59307;50.060;9.150;2022-07-06T02:17:05;4.13;;;2.35;;
71490;SDS011;59307;50.060;9.150;2022-07-06T02:19:30;4.20;;;2.23;;
71490;SDS011;59307;50.060;9.150;2022-07-06T02:21:55;8.87;;;2.57;;
71490;SDS011;59307;50.060;9.150;2022-07-06T02:24:21;3.33;;;2.23;;
71490;SDS011;59307;50.060;9.150;2022-07-06T02:26:46;4.77;;;2.20;;
71490;SDS011;59307;50.060;9.150;2022-07-06T02:29:11;3.63;;;2.60;;
71490;SDS011;59307;50.060;9.150;2022-07-06T02:31:37;5.75;;;2.50;;
71490;SDS011;59307;50.060;9.150;2022-07-06T02:34:02;8.33;;;2.80;;
71490;SDS011;59307;50.060;9.150;2022-07-06T02:36:27;5.37;;;2.50;;
71490;SDS011;59307;50.060;9.150;2022-07-06T02:38:52;8.20;;;2.50;;
71490;SDS011;59307;50.060;9.150;2022-07-06T02:41:18;4.53;;;2.50;;
71490;SDS011;59307;50.060;9.150;2022-07-06T02:43:43;4.53;;;2.37;;
71490;SDS011;59307;50.060;9.150;2022-07-06T02:46:09;6.32;;;2.72;;
71490;SDS011;59307;50.060;9.150;2022-07-06T02:48:34;8.77;;;3.23;;
71490;SDS011;59307;50.060;9.150;2022-07-06T02:50:59;6.33;;;2.87;;
71490;SDS011;59307;50.060;9.150;2022-07-06T02:53:25;6.77;;;2.50;;
71490;SDS011;59307;50.060;9.150;2022-07-06T02:55:50;5.80;;;2.30;;
71490;SDS011;59307;50.060;9.150;2022-07-06T02:58:15;7.80;;;2.60;;
71490;SDS011;59307;50.060;9.150;2022-07-06T03:00:40;8.17;;;2.90;;
71490;SDS011;59307;50.060;9.150;2022-07-06T03:03:06;6.95;;;2.90;;
71490;SDS011;59307;50.060;9.150;2022-07-06T03:05:32;3.63;;;2.33;;
71490;SDS011;59307;50.060;9.150;2022-07-06T03:07:57;4.23;;;2.50;;
71490;SDS011;59307;50.060;9.150;2022-07-06T03:10:22;4.20;;;2.70;;
71490;SDS011;59307;50.060;9.150;2022-07-06T03:12:48;5.63;;;2.60;;
71490;SDS011;59307;50.060;9.150;2022-07-06T03:15:13;5.27;;;2.57;;
71490;SDS011;59307;50.060;9.150;2022-07-06T03:17:38;3.97;;;2.80;;
71490;SDS011;59307;50.060;9.150;2022-07-06T03:20:04;5.53;;;2.83;;
71490;SDS011;59307;50.060;9.150;2022-07-06T03:22:30;4.88;;;2.47;;
71490;SDS011;59307;50.060;9.150;2022-07-06T03:24:56;4.23;;;2.60;;
71490;SDS011;59307;50.060;9.150;2022-07-06T03:27:21;4.00;;;2.40;;
71490;SDS011;59307;50.060;9.150;2022-07-06T03:29:47;6.30;;;2.90;;
71490;SDS011;59307;50.060;9.150;2022-07-06T03:32:12;7.80;;;2.87;;
71490;SDS011;59307;50.060;9.150;2022-07-06T03:34:37;5.03;;;2.80;;
71490;SDS011;59307;50.060;9.150;2022-07-06T03:37:03;5.60;;;2.63;;
71490;SDS011;59307;50.060;9.150;2022-07-06T03:39:28;5.13;;;2.83;;
71490;SDS011;59307;50.060;9.150;2022-07-06T03:41:53;6.38;;;2.70;;
71490;SDS011;59307;50.060;9.150;2022-07-06T03:44:19;5.37;;;2.87;;
71490;SDS011;59307;50.060;9.150;2022-07-06T03:46:44;4.70;;;2.97;;
71490;SDS011;59307;50.060;9.150;2022-07-06T03:49:09;6.43;;;3.10;;
71490;SDS011;59307;50.060;9.150;2022-07-06T03:51:35;4.90;;;2.80;;
71490;SDS011;59307;50.060;9.150;2022-07-06T03:54:00;4.45;;;2.92;;
71490;SDS011;59307;50.060;9.150;2022-07-06T03:56:25;5.63;;;2.90;;
71490;SDS011;59307;50.060;9.150;2022-07-06T03:58:57;7.73;;;2.70;;
71490;SDS011;59307;50.060;9.150;2022-07-06T04:01:23;7.28;;;2.75;;
71490;SDS011;59307;50.060;9.150;2022-07-06T04:03:49;6.60;;;2.95;;
71490;SDS011;59307;50.060;9.150;2022-07-06T04:06:15;6.97;;;2.83;;
71490;SDS011;59307;50.060;9.150;2022-07-06T04:08:40;3.47;;;2.65;;
71490;SDS011;59307;50.060;9.150;2022-07-06T04:11:06;3.77;;;2.70;;
71490;SDS011;59307;50.060;9.150;2022-07-06T04:13:31;5.23;;;2.87;;
71490;SDS011;59307;50.060;9.150;2022-07-06T04:15:57;6.60;;;2.60;;
71490;SDS011;59307;50.060;9.150;2022-07-06T04:18:22;4.87;;;2.50;;
71490;SDS011;59307;50.060;9.150;2022-07-06T04:20:47;6.57;;;2.60;;
71490;SDS011;59307;50.060;9.150;2022-07-06T04:23:13;5.00;;;2.60;;
71490;SDS011;59307;50.060;9.150;2022-07-06T04:25:38;8.03;;;2.60;;
71490;SDS011;59307;50.060;9.150;2022-07-06T04:28:03;5.68;;;2.80;;
71490;SDS011;59307;50.060;9.150;2022-07-06T04:30:29;6.00;;;2.90;;
71490;SDS011;59307;50.060;9.150;2022-07-06T04:32:55;4.90;;;2.40;;
71490;SDS011;59307;50.060;9.150;2022-07-06T04:35:20;8.00;;;2.67;;
71490;SDS011;59307;50.060;9.150;2022-07-06T04:37:46;4.83;;;2.60;;
71490;SDS011;59307;50.060;9.150;2022-07-06T04:40:12;6.22;;;2.60;;
71490;SDS011;59307;50.060;9.150;2022-07-06T04:42:38;7.38;;;2.85;;
71490;SDS011;59307;50.060;9.150;2022-07-06T04:45:04;5.73;;;2.90;;
71490;SDS011;59307;50.060;9.150;2022-07-06T04:47:30;6.00;;;3.00;;
71490;SDS011;59307;50.060;9.150;2022-07-06T04:49:55;11.60;;;2.85;;
71490;SDS011;59307;50.060;9.150;2022-07-06T04:52:20;4.80;;;2.90;;
71490;SDS011;59307;50.060;9.150;2022-07-06T04:54:46;6.00;;;3.10;;
71490;SDS011;59307;50.060;9.150;2022-07-06T04:57:11;5.27;;;3.17;;
71490;SDS011;59307;50.060;9.150;2022-07-06T04:59:36;8.83;;;3.13;;
71490;SDS011;59307;50.060;9.150;2022-07-06T05:02:02;5.97;;;3.23;;
71490;SDS011;59307;50.060;9.150;2022-07-06T05:04:27;6.50;;;3.25;;
71490;SDS011;59307;50.060;9.150;2022-07-06T05:06:52;5.00;;;3.37;;
71490;SDS011;59307;50.060;9.150;2022-07-06T05:09:18;7.33;;;3.50;;
71490;SDS011;59307;50.060;9.150;2022-07-06T05:11:43;5.47;;;2.73;;
71490;SDS011;59307;50.060;9.150;2022-07-06T05:14:09;8.40;;;3.40;;
71490;SDS011;59307;50.060;9.150;2022-07-06T05:16:35;5.80;;;3.07;;
71490;SDS011;59307;50.060;9.150;2022-07-06T05:19:00;5.82;;;3.35;;
71490;SDS011;59307;50.060;9.150;2022-07-06T05:21:26;4.77;;;3.00;;
71490;SDS011;59307;50.060;9.150;2022-07-06T05:23:51;4.97;;;2.80;;
71490;SDS011;59307;50.060;9.150;2022-07-06T05:26:16;4.97;;;2.90;;
71490;SDS011;59307;50.060;9.150;2022-07-06T05:28:42;4.87;;;3.10;;
71490;SDS011;59307;50.060;9.150;2022-07-06T05:31:07;9.50;;;3.10;;
71490;SDS011;59307;50.060;9.150;2022-07-06T05:33:32;4.57;;;2.80;;
71490;SDS011;59307;50.060;9.150;2022-07-06T05:35:57;4.60;;;2.72;;
71490;SDS011;59307;50.060;9.150;2022-07-06T05:38:23;6.03;;;2.73;;
71490;SDS011;59307;50.060;9.150;2022-07-06T05:40:48;4.83;;;2.60;;
71490;SDS011;59307;50.060;9.150;2022-07-06T05:43:14;6.27;;;2.57;;
71490;SDS011;59307;50.060;9.150;2022-07-06T05:45:39;5.97;;;2.90;;
71490;SDS011;59307;50.060;9.150;2022-07-06T05:48:04;8.37;;;2.87;;
71490;SDS011;59307;50.060;9.150;2022-07-06T05:50:48;7.00;;;2.80;;
71490;SDS011;59307;50.060;9.150;2022-07-06T05:53:13;4.50;;;2.97;;
71490;SDS011;59307;50.060;9.150;2022-07-06T05:55:39;5.33;;;2.87;;
71490;SDS011;59307;50.060;9.150;2022-07-06T05:58:04;4.90;;;2.77;;
71490;SDS011;59307;50.060;9.150;2022-07-06T06:00:29;6.00;;;3.10;;
71490;SDS011;59307;50.060;9.150;2022-07-06T06:02:55;7.60;;;2.63;;
71490;SDS011;59307;50.060;9.150;2022-07-06T06:05:20;5.43;;;2.60;;
71490;SDS011;59307;50.060;9.150;2022-07-06T06:07:46;5.07;;;2.63;;
71490;SDS011;59307;50.060;9.150;2022-07-06T06:10:13;7.30;;;3.00;;
71490;SDS011;59307;50.060;9.150;2022-07-06T06:12:39;5.43;;;2.70;;
71490;SDS011;59307;50.060;9.150;2022-07-06T06:15:06;8.85;;;2.92;;
71490;SDS011;59307;50.060;9.150;2022-07-06T06:17:32;5.10;;;2.70;;
71490;SDS011;59307;50.060;9.150;2022-07-06T06:19:58;5.47;;;2.80;;
71490;SDS011;59307;50.060;9.150;2022-07-06T06:22:24;5.78;;;2.58;;
71490;SDS011;59307;50.060;9.150;2022-07-06T06:24:49;7.97;;;2.87;;
71490;SDS011;59307;50.060;9.150;2022-07-06T06:27:14;6.07;;;2.43;;
71490;SDS011;59307;50.060;9.150;2022-07-06T06:29:40;4.17;;;2.93;;
71490;SDS011;59307;50.060;9.150;2022-07-06T06:32:07;5.10;;;2.70;;
71490;SDS011;59307;50.060;9.150;2022-07-06T06:34:32;7.35;;;2.90;;
71490;SDS011;59307;50.060;9.150;2022-07-06T06:36:58;7.03;;;2.67;;
71490;SDS011;59307;50.060;9.150;2022-07-06T06:39:24;4.30;;;2.67;;
71490;SDS011;59307;50.060;9.150;2022-07-06T06:41:49;7.40;;;2.58;;
71490;SDS011;59307;50.060;9.150;2022-07-06T06:44:14;5.97;;;2.60;;
71490;SDS011;59307;50.060;9.150;2022-07-06T06:46:40;5.17;;;2.43;;
71490;SDS011;59307;50.060;9.150;2022-07-06T06:49:06;5.40;;;2.55;;
71490;SDS011;59307;50.060;9.150;2022-07-06T06:51:32;7.77;;;2.83;;
71490;SDS011;59307;50.060;9.150;2022-07-06T06:53:58;3.97;;;2.30;;
71490;SDS011;59307;50.060;9.150;2022-07-06T06:56:23;6.33;;;2.60;;
71490;SDS011;59307;50.060;9.150;2022-07-06T06:58:48;5.50;;;2.60;;
71490;SDS011;59307;50.060;9.150;2022-07-06T07:01:14;7.83;;;2.40;;
71490;SDS011;59307;50.060;9.150;2022-07-06T07:03:39;5.90;;;2.20;;
71490;SDS011;59307;50.060;9.150;2022-07-06T07:06:04;3.83;;;2.40;;
71490;SDS011;59307;50.060;9.150;2022-07-06T07:08:30;3.85;;;2.30;;
71490;SDS011;59307;50.060;9.150;2022-07-06T07:10:55;5.03;;;2.20;;
71490;SDS011;59307;50.060;9.150;2022-07-06T07:13:20;4.60;;;2.40;;
71490;SDS011;59307;50.060;9.150;2022-07-06T07:15:45;5.00;;;2.30;;
71490;SDS011;59307;50.060;9.150;2022-07-06T07:18:11;4.87;;;2.20;;
71490;SDS011;59307;50.060;9.150;2022-07-06T07:20:36;5.97;;;2.40;;
71490;SDS011;59307;50.060;9.150;2022-07-06T07:23:01;5.53;;;2.40;;
71490;SDS011;59307;50.060;9.150;2022-07-06T07:25:27;6.53;;;2.57;;
71490;SDS011;59307;50.060;9.150;2022-07-06T07:27:52;5.00;;;1.87;;
71490;SDS011;59307;50.060;9.150;2022-07-06T07:30:18;5.63;;;2.22;;
71490;SDS011;59307;50.060;9.150;2022-07-06T07:32:44;6.07;;;2.20;;
71490;SDS011;59307;50.060;9.150;2022-07-06T07:35:09;3.83;;;2.27;;
71490;SDS011;59307;50.060;9.150;2022-07-06T07:37:35;8.40;;;2.60;;
71490;SDS011;59307;50.060;9.150;2022-07-06T07:40:00;4.03;;;2.47;;
71490;SDS011;59307;50.060;9.150;2022-07-06T07:42:26;5.85;;;2.33;;
71490;SDS011;59307;50.060;9.150;2022-07-06T07:44:51;4.87;;;2.53;;
71490;SDS011;59307;50.060;9.150;2022-07-06T07:47:17;8.33;;;2.50;;
71490;SDS011;59307;50.060;9.150;2022-07-06T07:49:42;5.23;;;2.70;;
71490;SDS011;59307;50.060;9.150;2022-07-06T07:52:08;5.50;;;2.60;;
71490;SDS011;59307;50.060;9.150;2022-07-06T07:54:33;6.57;;;2.45;;
71490;SDS011;59307;50.060;9.150;2022-07-06T07:56:59;7.30;;;2.87;;
71490;SDS011;59307;50.060;9.150;2022-07-06T07:59:24;4.73;;;2.70;;
71490;SDS011;59307;50.060;9.150;2022-07-06T08:01:49;5.07;;;2.70;;
71490;SDS011;59307;50.060;9.150;2022-07-06T08:04:15;5.13;;;2.40;;
71490;SDS011;59307;50.060;9.150;2022-07-06T08:06:40;4.17;;;2.13;;
71490;SDS011;59307;50.060;9.150;2022-07-06T08:09:05;4.50;;;2.63;;
71490;SDS011;59307;50.060;9.150;2022-07-06T08:11:33;5.85;;;2.53;;
71490;SDS011;59307;50.060;9.150;2022-07-06T08:13:58;4.60;;;2.30;;
71490;SDS011;59307;50.060;9.150;2022-07-06T08:16:24;8.50;;;2.60;;
71490;SDS011;59307;50.060;9.150;2022-07-06T08:18:50;5.13;;;2.13;;
71490;SDS011;59307;50.060;9.150;2022-07-06T08:21:15;4.67;;;2.13;;
71490;SDS011;59307;50.060;9.150;2022-07-06T08:23:40;4.70;;;2.28;;
71490;SDS011;59307;50.060;9.150;2022-07-06T08:26:06;5.77;;;2.43;;
71490;SDS011;59307;50.060;9.150;2022-07-06T08:28:31;3.50;;;2.27;;
71490;SDS011;59307;50.060;9.150;2022-07-06T08:30:57;5.33;;;2.60;;
71490;SDS011;59307;50.060;9.150;2022-07-06T08:33:22;5.35;;;2.22;;
71490;SDS011;59307;50.060;9.150;2022-07-06T08:35:48;5.07;;;2.43;;
71490;SDS011;59307;50.060;9.150;2022-07-06T08:38:13;6.10;;;2.77;;
71490;SDS011;59307;50.060;9.150;2022-07-06T08:40:38;7.47;;;2.70;;
71490;SDS011;59307;50.060;9.150;2022-07-06T08:43:05;5.43;;;2.78;;
71490;SDS011;59307;50.060;9.150;2022-07-06T08:45:30;4.20;;;2.30;;
71490;SDS011;59307;50.060;9.150;2022-07-06T08:48:02;6.25;;;2.80;;
71490;SDS011;59307;50.060;9.150;2022-07-06T08:50:29;5.50;;;3.28;;
71490;SDS011;59307;50.060;9.150;2022-07-06T08:52:55;5.47;;;3.22;;
71490;SDS011;59307;50.060;9.150;2022-07-06T08:55:21;7.87;;;3.37;;
71490;SDS011;59307;50.060;9.150;2022-07-06T08:57:46;6.53;;;3.47;;
71490;SDS011;59307;50.060;9.150;2022-07-06T09:00:12;4.95;;;2.83;;
71490;SDS011;59307;50.060;9.150;2022-07-06T09:02:39;6.15;;;3.50;;
71490;SDS011;59307;50.060;9.150;2022-07-06T09:05:05;9.63;;;3.80;;
71490;SDS011;59307;50.060;9.150;2022-07-06T09:07:33;7.45;;;2.92;;
71490;SDS011;59307;50.060;9.150;2022-07-06T09:09:59;7.70;;;3.72;;
71490;SDS011;59307;50.060;9.150;2022-07-06T09:12:26;6.83;;;3.47;;
71490;SDS011;59307;50.060;9.150;2022-07-06T09:14:54;7.75;;;3.60;;
71490;SDS011;59307;50.060;9.150;2022-07-06T09:17:20;7.70;;;3.45;;
71490;SDS011;59307;50.060;9.150;2022-07-06T09:19:45;8.23;;;3.70;;
71490;SDS011;59307;50.060;9.150;2022-07-06T09:22:14;4.72;;;2.80;;
71490;SDS011;59307;50.060;9.150;2022-07-06T09:24:50;5.18;;;2.90;;
71490;SDS011;59307;50.060;9.150;2022-07-06T09:27:15;7.10;;;2.67;;
71490;SDS011;59307;50.060;9.150;2022-07-06T09:29:42;4.63;;;3.10;;
71490;SDS011;59307;50.060;9.150;2022-07-06T09:32:07;8.57;;;3.03;;
71490;SDS011;59307;50.060;9.150;2022-07-06T09:34:45;5.80;;;2.60;;
71490;SDS011;59307;50.060;9.150;2022-07-06T09:37:11;5.53;;;2.92;;
71490;SDS011;59307;50.060;9.150;2022-07-06T09:39:38;6.80;;;2.97;;
71490;SDS011;59307;50.060;9.150;2022-07-06T09:42:04;7.22;;;3.30;;
71490;SDS011;59307;50.060;9.150;2022-07-06T09:44:35;7.22;;;3.55;;
71490;SDS011;59307;50.060;9.150;2022-07-06T09:47:09;7.05;;;3.45;;
71490;SDS011;59307;50.060;9.150;2022-07-06T09:49:36;6.63;;;3.30;;
71490;SDS011;59307;50.060;9.150;2022-07-06T09:52:04;4.57;;;3.10;;
71490;SDS011;59307;50.060;9.150;2022-07-06T09:54:30;5.53;;;2.85;;
71490;SDS011;59307;50.060;9.150;2022-07-06T09:56:58;5.70;;;3.15;;
71490;SDS011;59307;50.060;9.150;2022-07-06T09:59:25;5.07;;;3.00;;
71490;SDS011;59307;50.060;9.150;2022-07-06T10:01:52;7.50;;;3.42;;
71490;SDS011;59307;50.060;9.150;2022-07-06T10:04:22;5.85;;;3.33;;
71490;SDS011;59307;50.060;9.150;2022-07-06T10:06:48;5.13;;;2.90;;
71490;SDS011;59307;50.060;9.150;2022-07-06T10:09:15;6.95;;;3.45;;
71490;SDS011;59307;50.060;9.150;2022-07-06T10:11:42;6.70;;;3.13;;
71490;SDS011;59307;50.060;9.150;2022-07-06T10:14:12;5.97;;;2.50;;
71490;SDS011;59307;50.060;9.150;2022-07-06T10:16:41;6.88;;;3.05;;
71490;SDS011;59307;50.060;9.150;2022-07-06T10:19:08;5.63;;;2.80;;
71490;SDS011;59307;50.060;9.150;2022-07-06T10:21:39;6.22;;;2.90;;
71490;SDS011;59307;50.060;9.150;2022-07-06T10:24:05;7.90;;;2.85;;
71490;SDS011;59307;50.060;9.150;2022-07-06T10:26:32;8.27;;;2.90;;
71490;SDS011;59307;50.060;9.150;2022-07-06T10:28:59;6.13;;;2.60;;
71490;SDS011;59307;50.060;9.150;2022-07-06T10:31:26;5.83;;;3.17;;
71490;SDS011;59307;50.060;9.150;2022-07-06T10:33:53;6.38;;;2.90;;
71490;SDS011;59307;50.060;9.150;2022-07-06T10:36:20;6.95;;;2.85;;
71490;SDS011;59307;50.060;9.150;2022-07-06T10:38:49;5.07;;;3.23;;
71490;SDS011;59307;50.060;9.150;2022-07-06T10:41:15;8.93;;;2.90;;
71490;SDS011;59307;50.060;9.150;2022-07-06T10:43:42;5.60;;;2.77;;
71490;SDS011;59307;50.060;9.150;2022-07-06T10:46:09;5.03;;;2.60;;
71490;SDS011;59307;50.060;9.150;2022-07-06T10:48:37;7.18;;;2.70;;
71490;SDS011;59307;50.060;9.150;2022-07-06T10:51:04;6.88;;;2.80;;
71490;SDS011;59307;50.060;9.150;2022-07-06T10:53:31;3.88;;;2.55;;
71490;SDS011;59307;50.060;9.150;2022-07-06T10:55:59;4.38;;;2.40;;
71490;SDS011;59307;50.060;9.150;2022-07-06T11:01:10;8.75;;;2.80;;
71490;SDS011;59307;50.060;9.150;2022-07-06T11:03:38;7.60;;;3.20;;
71490;SDS011;59307;50.060;9.150;2022-07-06T11:06:18;5.82;;;2.90;;
71490;SDS011;59307;50.060;9.150;2022-07-06T11:11:26;8.37;;;3.40;;
71490;SDS011;59307;50.060;9.150;2022-07-06T11:13:52;8.55;;;3.40;;
71490;SDS011;59307;50.060;9.150;2022-07-06T11:16:18;6.03;;;3.25;;
71490;SDS011;59307;50.060;9.150;2022-07-06T11:18:49;5.15;;;3.08;;
71490;SDS011;59307;50.060;9.150;2022-07-06T11:21:27;5.28;;;3.03;;
71490;SDS011;59307;50.060;9.150;2022-07-06T11:24:00;5.67;;;3.10;;
71490;SDS011;59307;50.060;9.150;2022-07-06T11:26:25;6.75;;;3.20;;
71490;SDS011;59307;50.060;9.150;2022-07-06T11:28:52;7.28;;;3.50;;
71490;SDS011;59307;50.060;9.150;2022-07-06T11:31:18;8.37;;;2.90;;
71490;SDS011;59307;50.060;9.150;2022-07-06T11:33:46;4.75;;;2.70;;
71490;SDS011;59307;50.060;9.150;2022-07-06T11:36:13;8.60;;;2.70;;
71490;SDS011;59307;50.060;9.150;2022-07-06T11:38:40;5.03;;;3.00;;
71490;SDS011;59307;50.060;9.150;2022-07-06T11:41:05;6.22;;;2.90;;
71490;SDS011;59307;50.060;9.150;2022-07-06T11:43:31;5.70;;;3.00;;
71490;SDS011;59307;50.060;9.150;2022-07-06T11:45:56;5.93;;;2.63;;
71490;SDS011;59307;50.060;9.150;2022-07-06T11:48:22;4.90;;;2.50;;
71490;SDS011;59307;50.060;9.150;2022-07-06T11:51:03;7.60;;;3.33;;
71490;SDS011;59307;50.060;9.150;2022-07-06T11:53:28;6.47;;;3.00;;
71490;SDS011;59307;50.060;9.150;2022-07-06T11:55:54;5.80;;;2.80;;
71490;SDS011;59307;50.060;9.150;2022-07-06T11:58:21;6.10;;;2.90;;
71490;SDS011;59307;50.060;9.150;2022-07-06T12:01:04;3.60;;;2.78;;
71490;SDS011;59307;50.060;9.150;2022-07-06T12:03:30;6.20;;;2.90;;
71490;SDS011;59307;50.060;9.150;2022-07-06T12:05:57;7.45;;;3.10;;
71490;SDS011;59307;50.060;9.150;2022-07-06T12:08:23;7.72;;;3.40;;
71490;SDS011;59307;50.060;9.150;2022-07-06T12:10:49;5.40;;;3.20;;
71490;SDS011;59307;50.060;9.150;2022-07-06T12:13:14;6.70;;;3.00;;
71490;SDS011;59307;50.060;9.150;2022-07-06T12:15:39;6.10;;;3.10;;
71490;SDS011;59307;50.060;9.150;2022-07-06T12:18:05;4.60;;;2.60;;
71490;SDS011;59307;50.060;9.150;2022-07-06T12:20:30;5.90;;;2.60;;
71490;SDS011;59307;50.060;9.150;2022-07-06T12:23:02;5.10;;;2.60;;
71490;SDS011;59307;50.060;9.150;2022-07-06T12:25:35;5.45;;;2.90;;
71490;SDS011;59307;50.060;9.150;2022-07-06T12:28:02;3.95;;;2.78;;
71490;SDS011;59307;50.060;9.150;2022-07-06T12:30:28;6.23;;;2.37;;
71490;SDS011;59307;50.060;9.150;2022-07-06T12:33:13;5.88;;;2.30;;
71490;SDS011;59307;50.060;9.150;2022-07-06T12:35:43;4.72;;;2.58;;
71490;SDS011;59307;50.060;9.150;2022-07-06T12:38:09;5.97;;;2.90;;
71490;SDS011;59307;50.060;9.150;2022-07-06T12:40:37;4.23;;;2.63;;
71490;SDS011;59307;50.060;9.150;2022-07-06T12:43:03;5.60;;;2.78;;
71490;SDS011;59307;50.060;9.150;2022-07-06T12:45:30;5.10;;;2.58;;
71490;SDS011;59307;50.060;9.150;2022-07-06T12:47:57;4.03;;;2.50;;
71490;SDS011;59307;50.060;9.150;2022-07-06T12:50:36;5.43;;;2.90;;
71490;SDS011;59307;50.060;9.150;2022-07-06T12:53:03;6.20;;;2.72;;
71490;SDS011;59307;50.060;9.150;2022-07-06T12:55:30;4.85;;;2.72;;
71490;SDS011;59307;50.060;9.150;2022-07-06T12:57:55;8.43;;;3.03;;
71490;SDS011;59307;50.060;9.150;2022-07-06T13:00:22;6.10;;;2.80;;
71490;SDS011;59307;50.060;9.150;2022-07-06T13:02:50;4.05;;;2.80;;
71490;SDS011;59307;50.060;9.150;2022-07-06T13:05:24;5.13;;;2.80;;
71490;SDS011;59307;50.060;9.150;2022-07-06T13:07:54;9.52;;;3.15;;
71490;SDS011;59307;50.060;9.150;2022-07-06T13:10:21;7.53;;;2.87;;
71490;SDS011;59307;50.060;9.150;2022-07-06T13:12:48;6.97;;;2.75;;
71490;SDS011;59307;50.060;9.150;2022-07-06T13:15:15;4.25;;;2.80;;
71490;SDS011;59307;50.060;9.150;2022-07-06T13:17:40;4.57;;;2.70;;
71490;SDS011;59307;50.060;9.150;2022-07-06T13:20:07;6.43;;;2.70;;
71490;SDS011;59307;50.060;9.150;2022-07-06T13:22:34;7.43;;;3.08;;
71490;SDS011;59307;50.060;9.150;2022-07-06T13:25:00;8.13;;;2.60;;
71490;SDS011;59307;50.060;9.150;2022-07-06T13:27:25;5.28;;;2.70;;
71490;SDS011;59307;50.060;9.150;2022-07-06T13:29:51;4.17;;;2.50;;
71490;SDS011;59307;50.060;9.150;2022-07-06T13:32:16;4.43;;;2.53;;
71490;SDS011;59307;50.060;9.150;2022-07-06T13:34:42;6.05;;;2.70;;
71490;SDS011;59307;50.060;9.150;2022-07-06T13:37:07;3.00;;;2.63;;
71490;SDS011;59307;50.060;9.150;2022-07-06T13:39:32;4.93;;;2.63;;
71490;SDS011;59307;50.060;9.150;2022-07-06T13:41:58;4.07;;;2.60;;
71490;SDS011;59307;50.060;9.150;2022-07-06T13:44:23;5.13;;;2.83;;
71490;SDS011;59307;50.060;9.150;2022-07-06T13:46:49;5.30;;;2.67;;
71490;SDS011;59307;50.060;9.150;2022-07-06T13:49:15;5.57;;;2.75;;
71490;SDS011;59307;50.060;9.150;2022-07-06T13:51:40;4.67;;;2.40;;
71490;SDS011;59307;50.060;9.150;2022-07-06T13:54:06;3.35;;;2.40;;
71490;SDS011;59307;50.060;9.150;2022-07-06T13:56:32;4.18;;;2.40;;
71490;SDS011;59307;50.060;9.150;2022-07-06T13:58:58;3.53;;;1.93;;
71490;SDS011;59307;50.060;9.150;2022-07-06T14:01:23;5.83;;;2.20;;
71490;SDS011;59307;50.060;9.150;2022-07-06T14:03:49;5.05;;;2.67;;
71490;SDS011;59307;50.060;9.150;2022-07-06T14:06:14;4.50;;;2.60;;
71490;SDS011;59307;50.060;9.150;2022-07-06T14:08:41;6.22;;;2.10;;
71490;SDS011;59307;50.060;9.150;2022-07-06T14:11:07;3.85;;;2.00;;
71490;SDS011;59307;50.060;9.150;2022-07-06T14:13:34;3.15;;;1.85;;
71490;SDS011;59307;50.060;9.150;2022-07-06T14:16:00;3.87;;;2.13;;
71490;SDS011;59307;50.060;9.150;2022-07-06T14:18:26;3.67;;;2.10;;
71490;SDS011;59307;50.060;9.150;2022-07-06T14:20:52;3.13;;;2.10;;
71490;SDS011;59307;50.060;9.150;2022-07-06T14:23:18;3.20;;;1.95;;
71490;SDS011;59307;50.060;9.150;2022-07-06T14:25:45;3.58;;;2.10;;
71490;SDS011;59307;50.060;9.150;2022-07-06T14:28:11;2.30;;;1.77;;
71490;SDS011;59307;50.060;9.150;2022-07-06T14:30:38;5.40;;;2.08;;
71490;SDS011;59307;50.060;9.150;2022-07-06T14:33:05;4.10;;;2.03;;
71490;SDS011;59307;50.060;9.150;2022-07-06T14:35:35;4.90;;;2.13;;
71490;SDS011;59307;50.060;9.150;2022-07-06T14:38:01;3.27;;;2.00;;
71490;SDS011;59307;50.060;9.150;2022-07-06T14:40:27;7.63;;;2.05;;
71490;SDS011;59307;50.060;9.150;2022-07-06T14:42:53;4.27;;;2.00;;
71490;SDS011;59307;50.060;9.150;2022-07-06T14:45:18;4.87;;;2.10;;
71490;SDS011;59307;50.060;9.150;2022-07-06T14:47:43;4.27;;;1.90;;